Archival Weather

Fukuoka

Fukuoka, Japan (RJFF)

Report from: Tuesday, August 16, 2022 1:41 PM JST
Current time: Sunday, November 27, 2022 4:39 PM JST

Current weather
Weather history
Weather forecast

Present weatherRain showers, mist
Temperature28.0°C (82.4°F)
Heat index33.5°C (92.3°F)
Dew point26.0°C (78.8°F)
Winds 9 kts (4.6 m/s, 10.4 mph) Vrb
Winds variableWinds variable from Southeast (130°) to Southwest (220°)
Visibility3.1 mi. (5 km)
Clouds Few clouds 800 ft. (244 m)
Few clouds with cumulonimbus 2,000 ft. (610 m)
Scattered clouds 2,500 ft. (762 m)
Ceiling: Broken clouds 3,000 ft. (914 m)
Altimeter29.71 in.Hg (1006 mB)
Precip. events C 1:02 PM
Relative humidity89 %
Density altitude2,188 ft. (667 m)
Remarks Special weather observation
Cumulonimbus clouds observed east moving northeast
Flight conditions Marginal Visual Meteorological Conditions
Raw dataSPJP31 KWBC 160454 SPECI RJFF 160441Z 16009KT 130V220 5000 R16/0800VP2000U SHRA BR FEW008 FEW020CB SCT025 BKN030 28/26 Q1006 RMK 1ST008 2CB020 3CU025 5CU030 A2973 CB 10KM E MOV NE
An error has occurred. This application may no longer respond until reloaded. Reload 🗙